Airfield :
LOGIN :

Register | Disclaimer

   EN    FR    IT 

 










Legend :    VFR   Marginal VFR   IFR   Intensive IFR   Very Intensive IFR
Visi :
Ceiling :
>= 8 km
>= 3000ft
5 to 8 km
1000 to 3000 ft
1500m to 5 km
500 to 1000 ft
800 to 1500m
200 to 500 ft
< 800m
< 200 ft
Symbols :   Thunderstorms  Fog  Heavy snow  Heavy precipitations  Wind > 20 kt
SIGMETs :     Misc.  Thunderstorms  Icing  Turbulence  Mountain Waves  Volcanic Ashes






- Airport Elevation : 1504 ft
- IATA code : PNA


LEPP - Noain Pamplona

CURRENT METAR :
  • 092200Z AUTO VRB01KT CAVOK 14/08 Q1020

EXPIRED METARs :
  • 092130Z AUTO 07005KT 030V110 CAVOK 14/09 Q1020
  • 092100Z AUTO 02002KT CAVOK 14/08 Q1020
  • 092030Z AUTO 22002KT CAVOK 16/08 Q1020
  • 092000Z AUTO 25002KT CAVOK 15/09 Q1020

TAF TAF LEPP
Valid from the 09 at 21:00 until the 10 at 21:00 UTC


092000Z 0921/1021 17008KT 9999 SCT040 TX19/1014Z TN09/1006Z
PROB40
TEMPO 1018/1021 3000 RA



MET'MAP, your aeronautical weather chart ! - Copyright ORBIFLY December 2007 - Disclaimer

ORBIFLY MET'MAP TEAM :

Programming & Development : Alexandra Zaïnal
Concept & original design : Baudouin d'Aumeries
Assistance for programming : Marc-Olivier Méhu
Technical & hardware support : Manuel Goepfert

Contact : metmap@orbifly.com




SOURCES & CREDITS :

   NOAA